Pagrindinis puslapis
METAR-TAF:

METAR-TAF

Oro uostai :

Sharurah, Saudo Arabija

platuma: 17-28N, ilguma: 047-07E, Aukštis: 720 m

Dabartinis oras

Ataskaita buvo paskelbta 22 minutes, ne 06:00 UTC
Ramus vėjas
Temperatūra 37°C
Drėgmė 13%
Slėgis 1007 hPa
Matomumas 10 km arba daugiau
Mažai debesys ne aukštis 4000 ft
Išsisklaidę debesys ne aukštis 8000 ft

METAR: OESH 130600Z 00000KT 9999 FEW040 SCT080 37/04 Q1007 NOSIG

Laikas: 09:22 (06:22 UTC)

Prognozė

Ataskaita buvo paskelbta 7 valandos ir 22 minutes, ne 23:00 UTC
Prognozė galioja nuo 13 metu 00 UTC su 14 metu 06 UTC
Vėjas 3 kt nuo kintamojo kryptimis
Matomumas: 7000 m
Mažai debesys ne aukštis 4000 ft
Išsisklaidę debesys ne aukštis 10000 ft
Tapsmas
nuo 13 metu 06 UTC su 13 metu 08 UTC
Vėjas 12 kt iš Vakarų/Šiaurės Vakarų
Tapsmas
nuo 13 metu 10 UTC su 13 metu 12 UTC
Vėjas 14 kt iš Šiaurės/Šiaurės Rytų

TAF: OESH 122300Z 1300/1406 VRB03KT 7000 FEW040 SCT100 BECMG 1306/1308 29012KT BECMG 1310/1312 02014KT

Orai ataskaitas ir orų prognozės (METAR, TAF).

turimą stotys yra geltonos ir raudonos taškus žemėlapyje.

Perkelti pele per norėdami pamatyti stoties vardą.

Tada spustelėkite, norėdami matyti oro stebėjimo ir prognozės.

Norėdami pakeisti žemėlapį: spustelėkite ant žalios mygtukų su juodo kryžiaus žemyn,; žalią mygtuką su brūkšneliu, jei norite nutolinti; arba žalių rodyklių gretimoms žemėlapius.


METAR-TAF: